sensor_id;sensor_type;location;lat;lon;timestamp;P1;durP1;ratioP1;P2;durP2;ratioP2
70014;SDS011;57358;51.094;6.760;2023-04-15T00:00:55;4.95;;;4.45;;
70014;SDS011;57358;51.094;6.760;2023-04-15T00:03:23;5.85;;;5.38;;
70014;SDS011;57358;51.094;6.760;2023-04-15T00:05:50;5.93;;;5.53;;
70014;SDS011;57358;51.094;6.760;2023-04-15T00:08:17;5.65;;;5.28;;
70014;SDS011;57358;51.094;6.760;2023-04-15T00:10:43;5.28;;;4.82;;
70014;SDS011;57358;51.094;6.760;2023-04-15T00:13:11;4.88;;;4.57;;
70014;SDS011;57358;51.094;6.760;2023-04-15T00:15:38;5.78;;;5.25;;
70014;SDS011;57358;51.094;6.760;2023-04-15T00:18:04;5.07;;;4.68;;
70014;SDS011;57358;51.094;6.760;2023-04-15T00:20:30;6.65;;;5.57;;
70014;SDS011;57358;51.094;6.760;2023-04-15T00:22:57;5.57;;;5.18;;
70014;SDS011;57358;51.094;6.760;2023-04-15T00:25:24;5.85;;;5.00;;
70014;SDS011;57358;51.094;6.760;2023-04-15T00:27:51;5.93;;;5.13;;
70014;SDS011;57358;51.094;6.760;2023-04-15T00:30:17;5.15;;;4.75;;
70014;SDS011;57358;51.094;6.760;2023-04-15T00:32:44;4.50;;;4.20;;
70014;SDS011;57358;51.094;6.760;2023-04-15T00:35:11;5.57;;;5.07;;
70014;SDS011;57358;51.094;6.760;2023-04-15T00:37:38;8.70;;;5.65;;
70014;SDS011;57358;51.094;6.760;2023-04-15T00:40:05;4.88;;;4.43;;
70014;SDS011;57358;51.094;6.760;2023-04-15T00:42:33;4.50;;;4.20;;
70014;SDS011;57358;51.094;6.760;2023-04-15T00:45:00;5.47;;;4.97;;
70014;SDS011;57358;51.094;6.760;2023-04-15T00:47:26;5.30;;;4.97;;
70014;SDS011;57358;51.094;6.760;2023-04-15T00:49:55;5.28;;;4.95;;
70014;SDS011;57358;51.094;6.760;2023-04-15T00:52:21;5.00;;;4.70;;
70014;SDS011;57358;51.094;6.760;2023-04-15T00:54:47;6.07;;;5.53;;
70014;SDS011;57358;51.094;6.760;2023-04-15T00:57:14;6.18;;;5.38;;
70014;SDS011;57358;51.094;6.760;2023-04-15T00:59:40;5.10;;;4.70;;
70014;SDS011;57358;51.094;6.760;2023-04-15T01:02:07;5.10;;;4.80;;
70014;SDS011;57358;51.094;6.760;2023-04-15T01:04:34;5.47;;;5.05;;
70014;SDS011;57358;51.094;6.760;2023-04-15T01:07:01;5.25;;;4.85;;
70014;SDS011;57358;51.094;6.760;2023-04-15T01:09:27;8.70;;;5.72;;
70014;SDS011;57358;51.094;6.760;2023-04-15T01:11:54;4.93;;;4.60;;
70014;SDS011;57358;51.094;6.760;2023-04-15T01:14:22;5.80;;;5.38;;
70014;SDS011;57358;51.094;6.760;2023-04-15T01:16:48;5.72;;;5.25;;
70014;SDS011;57358;51.094;6.760;2023-04-15T01:19:15;5.55;;;5.15;;
70014;SDS011;57358;51.094;6.760;2023-04-15T01:21:43;5.72;;;5.25;;
70014;SDS011;57358;51.094;6.760;2023-04-15T01:24:10;5.28;;;4.88;;
70014;SDS011;57358;51.094;6.760;2023-04-15T01:26:41;4.55;;;4.20;;
70014;SDS011;57358;51.094;6.760;2023-04-15T01:29:09;5.03;;;4.68;;
70014;SDS011;57358;51.094;6.760;2023-04-15T01:31:36;4.53;;;4.25;;
70014;SDS011;57358;51.094;6.760;2023-04-15T01:34:03;5.47;;;4.97;;
70014;SDS011;57358;51.094;6.760;2023-04-15T01:36:29;6.90;;;6.20;;
70014;SDS011;57358;51.094;6.760;2023-04-15T01:38:56;5.90;;;5.50;;
70014;SDS011;57358;51.094;6.760;2023-04-15T01:41:24;11.32;;;4.88;;
70014;SDS011;57358;51.094;6.760;2023-04-15T01:43:52;4.75;;;4.35;;
70014;SDS011;57358;51.094;6.760;2023-04-15T01:46:19;6.72;;;5.18;;
70014;SDS011;57358;51.094;6.760;2023-04-15T01:48:46;5.07;;;4.68;;
70014;SDS011;57358;51.094;6.760;2023-04-15T01:51:12;3.75;;;3.58;;
70014;SDS011;57358;51.094;6.760;2023-04-15T01:53:38;5.15;;;4.85;;
70014;SDS011;57358;51.094;6.760;2023-04-15T01:56:05;4.30;;;4.10;;
70014;SDS011;57358;51.094;6.760;2023-04-15T01:58:32;4.93;;;4.63;;
70014;SDS011;57358;51.094;6.760;2023-04-15T02:00:58;4.60;;;4.22;;
70014;SDS011;57358;51.094;6.760;2023-04-15T02:03:25;5.65;;;5.07;;
70014;SDS011;57358;51.094;6.760;2023-04-15T02:05:52;5.55;;;4.68;;
70014;SDS011;57358;51.094;6.760;2023-04-15T02:08:19;5.15;;;4.75;;
70014;SDS011;57358;51.094;6.760;2023-04-15T02:10:45;4.97;;;4.70;;
70014;SDS011;57358;51.094;6.760;2023-04-15T02:13:14;4.38;;;4.07;;
70014;SDS011;57358;51.094;6.760;2023-04-15T02:15:46;5.93;;;5.43;;
70014;SDS011;57358;51.094;6.760;2023-04-15T02:18:16;4.03;;;3.83;;
70014;SDS011;57358;51.094;6.760;2023-04-15T02:20:42;4.45;;;4.18;;
70014;SDS011;57358;51.094;6.760;2023-04-15T02:23:08;5.07;;;4.55;;
70014;SDS011;57358;51.094;6.760;2023-04-15T02:25:36;5.75;;;5.28;;
70014;SDS011;57358;51.094;6.760;2023-04-15T02:28:04;5.50;;;5.00;;
70014;SDS011;57358;51.094;6.760;2023-04-15T02:30:31;5.05;;;4.65;;
70014;SDS011;57358;51.094;6.760;2023-04-15T02:32:59;5.18;;;4.88;;
70014;SDS011;57358;51.094;6.760;2023-04-15T02:35:26;5.38;;;4.30;;
70014;SDS011;57358;51.094;6.760;2023-04-15T02:37:52;4.93;;;4.57;;
70014;SDS011;57358;51.094;6.760;2023-04-15T02:40:19;4.82;;;4.43;;
70014;SDS011;57358;51.094;6.760;2023-04-15T02:42:45;4.75;;;4.45;;
70014;SDS011;57358;51.094;6.760;2023-04-15T02:45:12;3.83;;;3.63;;
70014;SDS011;57358;51.094;6.760;2023-04-15T02:47:39;3.83;;;3.63;;
70014;SDS011;57358;51.094;6.760;2023-04-15T02:50:07;4.85;;;4.45;;
70014;SDS011;57358;51.094;6.760;2023-04-15T02:52:34;3.95;;;3.75;;
70014;SDS011;57358;51.094;6.760;2023-04-15T02:55:01;4.68;;;4.38;;
70014;SDS011;57358;51.094;6.760;2023-04-15T02:57:30;3.95;;;3.75;;
70014;SDS011;57358;51.094;6.760;2023-04-15T02:59:56;3.65;;;3.50;;
70014;SDS011;57358;51.094;6.760;2023-04-15T03:02:23;3.78;;;3.50;;
70014;SDS011;57358;51.094;6.760;2023-04-15T03:04:50;4.85;;;4.38;;
70014;SDS011;57358;51.094;6.760;2023-04-15T03:07:17;4.43;;;4.20;;
70014;SDS011;57358;51.094;6.760;2023-04-15T03:09:44;3.95;;;3.75;;
70014;SDS011;57358;51.094;6.760;2023-04-15T03:12:10;4.45;;;4.18;;
70014;SDS011;57358;51.094;6.760;2023-04-15T03:14:37;4.60;;;4.30;;
70014;SDS011;57358;51.094;6.760;2023-04-15T03:17:03;4.10;;;3.90;;
70014;SDS011;57358;51.094;6.760;2023-04-15T03:19:30;4.40;;;4.15;;
70014;SDS011;57358;51.094;6.760;2023-04-15T03:21:56;4.43;;;4.22;;
70014;SDS011;57358;51.094;6.760;2023-04-15T03:24:23;8.32;;;4.75;;
70014;SDS011;57358;51.094;6.760;2023-04-15T03:26:50;4.07;;;3.80;;
70014;SDS011;57358;51.094;6.760;2023-04-15T03:29:16;4.38;;;4.07;;
70014;SDS011;57358;51.094;6.760;2023-04-15T03:31:43;4.20;;;4.00;;
70014;SDS011;57358;51.094;6.760;2023-04-15T03:34:09;4.38;;;4.07;;
70014;SDS011;57358;51.094;6.760;2023-04-15T03:36:38;4.75;;;4.35;;
70014;SDS011;57358;51.094;6.760;2023-04-15T03:39:04;3.97;;;3.67;;
70014;SDS011;57358;51.094;6.760;2023-04-15T03:41:30;4.43;;;4.22;;
70014;SDS011;57358;51.094;6.760;2023-04-15T03:43:58;4.28;;;4.07;;
70014;SDS011;57358;51.094;6.760;2023-04-15T03:46:24;4.30;;;4.05;;
70014;SDS011;57358;51.094;6.760;2023-04-15T03:48:50;3.92;;;3.72;;
70014;SDS011;57358;51.094;6.760;2023-04-15T03:51:17;3.83;;;3.60;;
70014;SDS011;57358;51.094;6.760;2023-04-15T03:53:43;4.03;;;3.83;;
70014;SDS011;57358;51.094;6.760;2023-04-15T03:56:10;4.95;;;4.38;;
70014;SDS011;57358;51.094;6.760;2023-04-15T03:58:36;4.03;;;3.83;;
70014;SDS011;57358;51.094;6.760;2023-04-15T04:01:02;4.20;;;3.90;;
70014;SDS011;57358;51.094;6.760;2023-04-15T04:03:29;4.53;;;4.07;;
70014;SDS011;57358;51.094;6.760;2023-04-15T04:05:55;4.15;;;3.95;;
70014;SDS011;57358;51.094;6.760;2023-04-15T04:08:22;9.85;;;5.72;;
70014;SDS011;57358;51.094;6.760;2023-04-15T04:10:48;4.68;;;4.45;;
70014;SDS011;57358;51.094;6.760;2023-04-15T04:13:15;4.57;;;4.35;;
70014;SDS011;57358;51.094;6.760;2023-04-15T04:15:41;4.45;;;4.20;;
70014;SDS011;57358;51.094;6.760;2023-04-15T04:18:07;4.25;;;4.05;;
70014;SDS011;57358;51.094;6.760;2023-04-15T04:20:34;3.90;;;3.70;;
70014;SDS011;57358;51.094;6.760;2023-04-15T04:23:00;4.15;;;3.75;;
70014;SDS011;57358;51.094;6.760;2023-04-15T04:25:27;3.75;;;3.58;;
70014;SDS011;57358;51.094;6.760;2023-04-15T04:27:53;4.45;;;4.05;;
70014;SDS011;57358;51.094;6.760;2023-04-15T04:30:19;4.07;;;3.78;;
70014;SDS011;57358;51.094;6.760;2023-04-15T04:32:46;3.58;;;3.42;;
70014;SDS011;57358;51.094;6.760;2023-04-15T04:35:12;6.13;;;3.90;;
70014;SDS011;57358;51.094;6.760;2023-04-15T04:37:39;5.40;;;4.20;;
70014;SDS011;57358;51.094;6.760;2023-04-15T04:40:05;4.35;;;4.05;;
70014;SDS011;57358;51.094;6.760;2023-04-15T04:42:33;4.15;;;3.33;;
70014;SDS011;57358;51.094;6.760;2023-04-15T04:44:59;4.30;;;4.07;;
70014;SDS011;57358;51.094;6.760;2023-04-15T04:47:26;3.92;;;3.67;;
70014;SDS011;57358;51.094;6.760;2023-04-15T04:49:52;4.65;;;4.35;;
70014;SDS011;57358;51.094;6.760;2023-04-15T04:52:18;4.47;;;4.10;;
70014;SDS011;57358;51.094;6.760;2023-04-15T04:54:45;3.83;;;3.65;;
70014;SDS011;57358;51.094;6.760;2023-04-15T04:57:12;3.47;;;3.28;;
70014;SDS011;57358;51.094;6.760;2023-04-15T04:59:38;4.38;;;4.07;;
70014;SDS011;57358;51.094;6.760;2023-04-15T05:02:05;3.53;;;3.38;;
70014;SDS011;57358;51.094;6.760;2023-04-15T05:04:32;3.80;;;3.55;;
70014;SDS011;57358;51.094;6.760;2023-04-15T05:06:59;3.50;;;3.40;;
70014;SDS011;57358;51.094;6.760;2023-04-15T05:09:25;4.30;;;4.00;;
70014;SDS011;57358;51.094;6.760;2023-04-15T05:11:52;4.28;;;4.07;;
70014;SDS011;57358;51.094;6.760;2023-04-15T05:14:18;3.53;;;3.40;;
70014;SDS011;57358;51.094;6.760;2023-04-15T05:16:48;3.90;;;3.70;;
70014;SDS011;57358;51.094;6.760;2023-04-15T05:19:15;5.13;;;4.03;;
70014;SDS011;57358;51.094;6.760;2023-04-15T05:21:41;4.25;;;4.05;;
70014;SDS011;57358;51.094;6.760;2023-04-15T05:24:08;4.57;;;4.28;;
70014;SDS011;57358;51.094;6.760;2023-04-15T05:26:34;6.72;;;4.45;;
70014;SDS011;57358;51.094;6.760;2023-04-15T05:29:01;5.75;;;5.35;;
70014;SDS011;57358;51.094;6.760;2023-04-15T05:31:28;4.15;;;3.95;;
70014;SDS011;57358;51.094;6.760;2023-04-15T05:33:54;4.70;;;4.40;;
70014;SDS011;57358;51.094;6.760;2023-04-15T05:36:20;5.32;;;4.95;;
70014;SDS011;57358;51.094;6.760;2023-04-15T05:38:47;4.55;;;4.30;;
70014;SDS011;57358;51.094;6.760;2023-04-15T05:41:13;4.32;;;4.03;;
70014;SDS011;57358;51.094;6.760;2023-04-15T05:43:43;4.78;;;4.47;;
70014;SDS011;57358;51.094;6.760;2023-04-15T05:46:09;5.32;;;4.85;;
70014;SDS011;57358;51.094;6.760;2023-04-15T05:48:36;5.03;;;4.72;;
70014;SDS011;57358;51.094;6.760;2023-04-15T05:51:02;11.05;;;5.18;;
70014;SDS011;57358;51.094;6.760;2023-04-15T05:53:29;4.47;;;4.18;;
70014;SDS011;57358;51.094;6.760;2023-04-15T05:55:55;5.15;;;4.75;;
70014;SDS011;57358;51.094;6.760;2023-04-15T05:58:22;9.35;;;6.00;;
70014;SDS011;57358;51.094;6.760;2023-04-15T06:00:48;6.78;;;4.90;;
70014;SDS011;57358;51.094;6.760;2023-04-15T06:03:15;5.75;;;5.22;;
70014;SDS011;57358;51.094;6.760;2023-04-15T06:05:41;4.93;;;4.63;;
70014;SDS011;57358;51.094;6.760;2023-04-15T06:08:09;6.00;;;5.43;;
70014;SDS011;57358;51.094;6.760;2023-04-15T06:10:36;6.80;;;6.07;;
70014;SDS011;57358;51.094;6.760;2023-04-15T06:13:03;6.47;;;5.50;;
70014;SDS011;57358;51.094;6.760;2023-04-15T06:15:29;9.07;;;6.22;;
70014;SDS011;57358;51.094;6.760;2023-04-15T06:17:56;6.22;;;5.72;;
70014;SDS011;57358;51.094;6.760;2023-04-15T06:20:25;5.95;;;5.45;;
70014;SDS011;57358;51.094;6.760;2023-04-15T06:22:51;8.20;;;5.90;;
70014;SDS011;57358;51.094;6.760;2023-04-15T06:25:18;5.75;;;5.25;;
70014;SDS011;57358;51.094;6.760;2023-04-15T06:27:45;6.65;;;5.93;;
70014;SDS011;57358;51.094;6.760;2023-04-15T06:30:11;6.38;;;5.72;;
70014;SDS011;57358;51.094;6.760;2023-04-15T06:32:37;5.18;;;4.78;;
70014;SDS011;57358;51.094;6.760;2023-04-15T06:35:04;5.85;;;4.95;;
70014;SDS011;57358;51.094;6.760;2023-04-15T06:37:31;6.53;;;5.80;;
70014;SDS011;57358;51.094;6.760;2023-04-15T06:39:59;5.82;;;5.43;;
70014;SDS011;57358;51.094;6.760;2023-04-15T06:42:26;5.93;;;5.53;;
70014;SDS011;57358;51.094;6.760;2023-04-15T06:44:52;16.15;;;6.65;;
70014;SDS011;57358;51.094;6.760;2023-04-15T06:47:19;9.32;;;6.38;;
70014;SDS011;57358;51.094;6.760;2023-04-15T06:49:45;6.90;;;6.30;;
70014;SDS011;57358;51.094;6.760;2023-04-15T06:52:11;6.45;;;5.85;;
70014;SDS011;57358;51.094;6.760;2023-04-15T06:54:38;9.25;;;6.82;;
70014;SDS011;57358;51.094;6.760;2023-04-15T06:57:04;6.78;;;6.10;;
70014;SDS011;57358;51.094;6.760;2023-04-15T06:59:32;8.35;;;7.03;;
70014;SDS011;57358;51.094;6.760;2023-04-15T07:01:58;9.90;;;5.75;;
70014;SDS011;57358;51.094;6.760;2023-04-15T07:04:24;7.00;;;6.38;;
70014;SDS011;57358;51.094;6.760;2023-04-15T07:06:51;7.53;;;6.90;;
70014;SDS011;57358;51.094;6.760;2023-04-15T07:09:23;20.53;;;6.37;;
70014;SDS011;57358;51.094;6.760;2023-04-15T07:11:49;9.32;;;6.95;;
70014;SDS011;57358;51.094;6.760;2023-04-15T07:14:16;6.60;;;6.00;;
70014;SDS011;57358;51.094;6.760;2023-04-15T07:16:43;8.18;;;6.30;;
70014;SDS011;57358;51.094;6.760;2023-04-15T07:19:09;6.68;;;6.13;;
70014;SDS011;57358;51.094;6.760;2023-04-15T07:21:36;11.48;;;7.57;;
70014;SDS011;57358;51.094;6.760;2023-04-15T07:24:06;7.68;;;6.97;;
70014;SDS011;57358;51.094;6.760;2023-04-15T07:26:32;11.32;;;5.93;;
70014;SDS011;57358;51.094;6.760;2023-04-15T07:28:59;7.47;;;6.88;;
70014;SDS011;57358;51.094;6.760;2023-04-15T07:31:26;6.63;;;6.07;;
70014;SDS011;57358;51.094;6.760;2023-04-15T07:33:52;11.88;;;6.28;;
70014;SDS011;57358;51.094;6.760;2023-04-15T07:36:19;7.22;;;6.43;;
70014;SDS011;57358;51.094;6.760;2023-04-15T07:38:45;6.10;;;5.40;;
70014;SDS011;57358;51.094;6.760;2023-04-15T07:41:12;6.45;;;5.85;;
70014;SDS011;57358;51.094;6.760;2023-04-15T07:43:39;6.85;;;6.13;;
70014;SDS011;57358;51.094;6.760;2023-04-15T07:46:05;6.32;;;5.88;;
70014;SDS011;57358;51.094;6.760;2023-04-15T07:48:32;7.00;;;6.40;;
70014;SDS011;57358;51.094;6.760;2023-04-15T07:51:00;8.23;;;5.97;;
70014;SDS011;57358;51.094;6.760;2023-04-15T07:53:27;6.80;;;6.20;;
70014;SDS011;57358;51.094;6.760;2023-04-15T07:55:54;6.32;;;5.75;;
70014;SDS011;57358;51.094;6.760;2023-04-15T07:58:21;6.05;;;5.50;;
70014;SDS011;57358;51.094;6.760;2023-04-15T08:00:47;5.75;;;5.22;;
70014;SDS011;57358;51.094;6.760;2023-04-15T08:03:14;5.55;;;5.05;;
70014;SDS011;57358;51.094;6.760;2023-04-15T08:05:40;5.40;;;5.00;;
70014;SDS011;57358;51.094;6.760;2023-04-15T08:08:07;7.03;;;6.43;;
70014;SDS011;57358;51.094;6.760;2023-04-15T08:10:33;5.47;;;5.10;;
70014;SDS011;57358;51.094;6.760;2023-04-15T08:13:02;6.00;;;5.43;;
70014;SDS011;57358;51.094;6.760;2023-04-15T08:15:29;5.13;;;4.78;;
70014;SDS011;57358;51.094;6.760;2023-04-15T08:17:57;5.53;;;5.13;;
70014;SDS011;57358;51.094;6.760;2023-04-15T08:20:26;5.55;;;5.15;;
70014;SDS011;57358;51.094;6.760;2023-04-15T08:22:52;5.57;;;5.07;;
70014;SDS011;57358;51.094;6.760;2023-04-15T08:25:19;6.38;;;5.80;;
70014;SDS011;57358;51.094;6.760;2023-04-15T08:27:45;5.50;;;4.90;;
70014;SDS011;57358;51.094;6.760;2023-04-15T08:30:12;6.75;;;5.68;;
70014;SDS011;57358;51.094;6.760;2023-04-15T08:32:40;5.03;;;4.80;;
70014;SDS011;57358;51.094;6.760;2023-04-15T08:35:07;5.10;;;4.80;;
70014;SDS011;57358;51.094;6.760;2023-04-15T08:37:34;6.13;;;5.22;;
70014;SDS011;57358;51.094;6.760;2023-04-15T08:40:00;5.07;;;4.78;;
70014;SDS011;57358;51.094;6.760;2023-04-15T08:42:29;5.72;;;5.25;;
70014;SDS011;57358;51.094;6.760;2023-04-15T08:44:58;5.25;;;4.95;;
70014;SDS011;57358;51.094;6.760;2023-04-15T08:47:28;4.97;;;4.68;;
70014;SDS011;57358;51.094;6.760;2023-04-15T08:49:57;5.38;;;5.07;;
70014;SDS011;57358;51.094;6.760;2023-04-15T08:52:24;5.18;;;4.88;;
70014;SDS011;57358;51.094;6.760;2023-04-15T08:54:51;5.63;;;5.25;;
70014;SDS011;57358;51.094;6.760;2023-04-15T08:57:25;4.97;;;4.68;;
70014;SDS011;57358;51.094;6.760;2023-04-15T08:59:54;6.20;;;5.60;;
70014;SDS011;57358;51.094;6.760;2023-04-15T09:02:21;5.32;;;4.93;;
70014;SDS011;57358;51.094;6.760;2023-04-15T09:04:49;5.40;;;5.05;;
70014;SDS011;57358;51.094;6.760;2023-04-15T09:07:15;5.55;;;5.00;;
70014;SDS011;57358;51.094;6.760;2023-04-15T09:09:42;6.47;;;5.97;;
70014;SDS011;57358;51.094;6.760;2023-04-15T09:12:08;5.68;;;5.35;;
70014;SDS011;57358;51.094;6.760;2023-04-15T09:14:38;5.93;;;5.53;;
70014;SDS011;57358;51.094;6.760;2023-04-15T09:17:08;6.60;;;5.95;;
70014;SDS011;57358;51.094;6.760;2023-04-15T09:19:35;6.80;;;6.20;;
70014;SDS011;57358;51.094;6.760;2023-04-15T09:22:02;5.63;;;5.13;;
70014;SDS011;57358;51.094;6.760;2023-04-15T09:24:38;5.75;;;5.35;;
70014;SDS011;57358;51.094;6.760;2023-04-15T09:27:06;6.10;;;5.65;;
70014;SDS011;57358;51.094;6.760;2023-04-15T09:29:32;6.63;;;6.03;;
70014;SDS011;57358;51.094;6.760;2023-04-15T09:32:12;5.68;;;5.28;;
70014;SDS011;57358;51.094;6.760;2023-04-15T09:34:39;5.97;;;5.45;;
70014;SDS011;57358;51.094;6.760;2023-04-15T09:37:05;7.32;;;5.63;;
70014;SDS011;57358;51.094;6.760;2023-04-15T09:39:49;6.22;;;5.63;;
70014;SDS011;57358;51.094;6.760;2023-04-15T09:42:18;5.97;;;5.57;;
70014;SDS011;57358;51.094;6.760;2023-04-15T09:44:51;6.47;;;5.97;;
70014;SDS011;57358;51.094;6.760;2023-04-15T09:47:30;6.57;;;5.95;;
70014;SDS011;57358;51.094;6.760;2023-04-15T09:49:58;6.68;;;6.07;;
70014;SDS011;57358;51.094;6.760;2023-04-15T09:52:25;7.22;;;6.32;;
70014;SDS011;57358;51.094;6.760;2023-04-15T09:54:52;6.05;;;5.53;;
70014;SDS011;57358;51.094;6.760;2023-04-15T09:57:22;5.40;;;5.00;;
70014;SDS011;57358;51.094;6.760;2023-04-15T09:59:49;5.75;;;5.35;;
70014;SDS011;57358;51.094;6.760;2023-04-15T10:02:17;5.70;;;5.30;;
70014;SDS011;57358;51.094;6.760;2023-04-15T10:04:46;4.82;;;4.53;;
70014;SDS011;57358;51.094;6.760;2023-04-15T10:07:14;5.47;;;5.13;;
70014;SDS011;57358;51.094;6.760;2023-04-15T10:09:43;5.25;;;4.95;;
70014;SDS011;57358;51.094;6.760;2023-04-15T10:12:11;5.50;;;5.10;;
70014;SDS011;57358;51.094;6.760;2023-04-15T10:14:38;4.80;;;4.60;;
70014;SDS011;57358;51.094;6.760;2023-04-15T10:17:06;4.82;;;4.53;;
70014;SDS011;57358;51.094;6.760;2023-04-15T10:19:35;5.22;;;4.88;;
70014;SDS011;57358;51.094;6.760;2023-04-15T10:22:03;5.28;;;4.97;;
70014;SDS011;57358;51.094;6.760;2023-04-15T10:24:32;5.43;;;5.03;;
70014;SDS011;57358;51.094;6.760;2023-04-15T10:26:59;5.30;;;4.90;;
70014;SDS011;57358;51.094;6.760;2023-04-15T10:29:25;7.10;;;5.40;;
70014;SDS011;57358;51.094;6.760;2023-04-15T10:31:55;5.60;;;5.20;;
70014;SDS011;57358;51.094;6.760;2023-04-15T10:34:22;5.63;;;5.22;;
70014;SDS011;57358;51.094;6.760;2023-04-15T10:36:50;9.32;;;4.72;;
70014;SDS011;57358;51.094;6.760;2023-04-15T10:42:21;5.70;;;5.40;;
70014;SDS011;57358;51.094;6.760;2023-04-15T10:44:49;5.47;;;5.03;;
70014;SDS011;57358;51.094;6.760;2023-04-15T10:47:17;5.88;;;5.30;;
70014;SDS011;57358;51.094;6.760;2023-04-15T10:49:49;5.63;;;5.32;;
70014;SDS011;57358;51.094;6.760;2023-04-15T10:52:25;5.82;;;5.40;;
70014;SDS011;57358;51.094;6.760;2023-04-15T10:57:37;5.60;;;5.30;;
70014;SDS011;57358;51.094;6.760;2023-04-15T11:08:11;5.45;;;5.10;;
70014;SDS011;57358;51.094;6.760;2023-04-15T11:13:14;5.93;;;5.53;;
70014;SDS011;57358;51.094;6.760;2023-04-15T11:15:42;5.93;;;5.45;;
70014;SDS011;57358;51.094;6.760;2023-04-15T11:18:14;5.60;;;5.30;;
70014;SDS011;57358;51.094;6.760;2023-04-15T11:20:43;5.43;;;5.00;;
70014;SDS011;57358;51.094;6.760;2023-04-15T11:23:10;5.68;;;5.28;;
70014;SDS011;57358;51.094;6.760;2023-04-15T11:25:40;5.85;;;5.35;;
70014;SDS011;57358;51.094;6.760;2023-04-15T11:28:08;5.70;;;5.30;;
70014;SDS011;57358;51.094;6.760;2023-04-15T11:30:36;5.38;;;4.97;;
70014;SDS011;57358;51.094;6.760;2023-04-15T11:33:04;5.50;;;5.10;;
70014;SDS011;57358;51.094;6.760;2023-04-15T11:35:34;5.35;;;5.05;;
70014;SDS011;57358;51.094;6.760;2023-04-15T11:38:02;5.55;;;5.25;;
70014;SDS011;57358;51.094;6.760;2023-04-15T11:45:31;5.35;;;5.00;;
70014;SDS011;57358;51.094;6.760;2023-04-15T11:48:07;5.15;;;4.85;;
70014;SDS011;57358;51.094;6.760;2023-04-15T11:50:36;5.65;;;5.20;;
70014;SDS011;57358;51.094;6.760;2023-04-15T11:53:06;5.07;;;4.78;;
70014;SDS011;57358;51.094;6.760;2023-04-15T11:55:41;12.23;;;5.82;;
70014;SDS011;57358;51.094;6.760;2023-04-15T11:58:20;6.55;;;6.03;;
70014;SDS011;57358;51.094;6.760;2023-04-15T12:00:56;6.25;;;5.80;;
70014;SDS011;57358;51.094;6.760;2023-04-15T12:03:25;7.15;;;6.45;;
70014;SDS011;57358;51.094;6.760;2023-04-15T12:11:33;6.60;;;6.10;;
70014;SDS011;57358;51.094;6.760;2023-04-15T12:16:52;8.55;;;6.15;;
70014;SDS011;57358;51.094;6.760;2023-04-15T12:19:24;6.85;;;6.32;;
70014;SDS011;57358;51.094;6.760;2023-04-15T12:22:03;6.80;;;5.82;;
70014;SDS011;57358;51.094;6.760;2023-04-15T12:24:32;6.78;;;6.22;;
70014;SDS011;57358;51.094;6.760;2023-04-15T12:27:03;6.60;;;6.03;;
70014;SDS011;57358;51.094;6.760;2023-04-15T12:29:31;9.23;;;8.25;;
70014;SDS011;57358;51.094;6.760;2023-04-15T12:32:09;11.13;;;8.63;;
70014;SDS011;57358;51.094;6.760;2023-04-15T12:34:37;8.80;;;7.32;;
70014;SDS011;57358;51.094;6.760;2023-04-15T12:37:05;9.38;;;7.47;;
70014;SDS011;57358;51.094;6.760;2023-04-15T12:39:36;14.15;;;8.65;;
70014;SDS011;57358;51.094;6.760;2023-04-15T12:42:04;9.60;;;8.40;;
70014;SDS011;57358;51.094;6.760;2023-04-15T12:44:32;7.55;;;6.93;;
70014;SDS011;57358;51.094;6.760;2023-04-15T12:46:59;8.75;;;7.28;;
70014;SDS011;57358;51.094;6.760;2023-04-15T12:49:26;7.30;;;6.60;;
70014;SDS011;57358;51.094;6.760;2023-04-15T12:51:55;8.43;;;7.57;;
70014;SDS011;57358;51.094;6.760;2023-04-15T12:54:22;8.07;;;5.95;;
70014;SDS011;57358;51.094;6.760;2023-04-15T12:56:49;6.18;;;5.68;;
70014;SDS011;57358;51.094;6.760;2023-04-15T12:59:16;6.03;;;5.53;;
70014;SDS011;57358;51.094;6.760;2023-04-15T13:01:44;5.80;;;5.40;;
70014;SDS011;57358;51.094;6.760;2023-04-15T13:04:12;6.38;;;5.90;;
70014;SDS011;57358;51.094;6.760;2023-04-15T13:06:39;6.63;;;6.07;;
70014;SDS011;57358;51.094;6.760;2023-04-15T13:09:06;6.47;;;5.93;;
70014;SDS011;57358;51.094;6.760;2023-04-15T13:11:32;6.22;;;5.70;;
70014;SDS011;57358;51.094;6.760;2023-04-15T13:14:02;6.18;;;5.70;;
70014;SDS011;57358;51.094;6.760;2023-04-15T13:16:31;6.22;;;5.72;;
70014;SDS011;57358;51.094;6.760;2023-04-15T13:18:58;6.15;;;5.65;;
70014;SDS011;57358;51.094;6.760;2023-04-15T13:21:26;6.28;;;5.78;;
70014;SDS011;57358;51.094;6.760;2023-04-15T13:23:53;6.25;;;5.78;;
70014;SDS011;57358;51.094;6.760;2023-04-15T13:26:19;5.07;;;4.68;;
70014;SDS011;57358;51.094;6.760;2023-04-15T13:28:46;8.63;;;6.68;;
70014;SDS011;57358;51.094;6.760;2023-04-15T13:31:15;7.63;;;7.03;;
70014;SDS011;57358;51.094;6.760;2023-04-15T13:33:41;10.18;;;8.18;;
70014;SDS011;57358;51.094;6.760;2023-04-15T13:36:08;7.95;;;6.97;;
70014;SDS011;57358;51.094;6.760;2023-04-15T13:38:34;6.72;;;6.18;;
70014;SDS011;57358;51.094;6.760;2023-04-15T13:41:01;10.77;;;8.38;;
70014;SDS011;57358;51.094;6.760;2023-04-15T13:43:27;9.52;;;6.45;;
70014;SDS011;57358;51.094;6.760;2023-04-15T13:45:54;7.05;;;5.55;;
70014;SDS011;57358;51.094;6.760;2023-04-15T13:48:21;7.80;;;7.15;;
70014;SDS011;57358;51.094;6.760;2023-04-15T13:50:47;6.90;;;6.35;;
70014;SDS011;57358;51.094;6.760;2023-04-15T13:53:13;5.53;;;5.13;;
70014;SDS011;57358;51.094;6.760;2023-04-15T13:55:40;6.57;;;5.43;;
70014;SDS011;57358;51.094;6.760;2023-04-15T13:58:07;5.53;;;5.13;;
70014;SDS011;57358;51.094;6.760;2023-04-15T14:00:34;8.35;;;5.82;;
70014;SDS011;57358;51.094;6.760;2023-04-15T14:03:01;5.72;;;5.25;;
70014;SDS011;57358;51.094;6.760;2023-04-15T14:05:27;5.13;;;4.82;;
70014;SDS011;57358;51.094;6.760;2023-04-15T14:07:54;6.70;;;6.13;;
70014;SDS011;57358;51.094;6.760;2023-04-15T14:10:22;6.22;;;5.63;;
70014;SDS011;57358;51.094;6.760;2023-04-15T14:12:49;6.35;;;5.85;;
70014;SDS011;57358;51.094;6.760;2023-04-15T14:15:15;14.38;;;6.47;;
70014;SDS011;57358;51.094;6.760;2023-04-15T14:17:42;6.97;;;6.32;;
70014;SDS011;57358;51.094;6.760;2023-04-15T14:20:08;6.25;;;5.72;;
70014;SDS011;57358;51.094;6.760;2023-04-15T14:22:35;5.65;;;5.32;;
70014;SDS011;57358;51.094;6.760;2023-04-15T14:25:01;5.72;;;5.30;;
70014;SDS011;57358;51.094;6.760;2023-04-15T14:27:29;5.72;;;5.30;;
70014;SDS011;57358;51.094;6.760;2023-04-15T14:29:55;6.10;;;5.60;;
70014;SDS011;57358;51.094;6.760;2023-04-15T14:32:24;5.68;;;5.25;;
70014;SDS011;57358;51.094;6.760;2023-04-15T14:34:51;6.82;;;6.32;;
70014;SDS011;57358;51.094;6.760;2023-04-15T14:37:17;5.55;;;5.05;;
70014;SDS011;57358;51.094;6.760;2023-04-15T14:39:44;5.35;;;5.05;;
70014;SDS011;57358;51.094;6.760;2023-04-15T14:42:10;5.07;;;4.78;;
70014;SDS011;57358;51.094;6.760;2023-04-15T14:44:37;6.32;;;4.78;;
70014;SDS011;57358;51.094;6.760;2023-04-15T14:47:03;8.68;;;5.47;;
70014;SDS011;57358;51.094;6.760;2023-04-15T14:49:30;5.53;;;4.97;;
70014;SDS011;57358;51.094;6.760;2023-04-15T14:51:57;5.20;;;4.80;;
70014;SDS011;57358;51.094;6.760;2023-04-15T14:54:23;5.32;;;5.00;;
70014;SDS011;57358;51.094;6.760;2023-04-15T14:56:49;5.38;;;5.03;;
70014;SDS011;57358;51.094;6.760;2023-04-15T14:59:16;4.90;;;4.60;;
70014;SDS011;57358;51.094;6.760;2023-04-15T15:01:42;5.30;;;5.00;;
70014;SDS011;57358;51.094;6.760;2023-04-15T15:04:09;5.00;;;4.70;;
70014;SDS011;57358;51.094;6.760;2023-04-15T15:06:36;5.32;;;5.00;;
70014;SDS011;57358;51.094;6.760;2023-04-15T15:09:03;6.32;;;5.82;;
70014;SDS011;57358;51.094;6.760;2023-04-15T15:11:30;6.47;;;5.45;;
70014;SDS011;57358;51.094;6.760;2023-04-15T15:13:56;7.55;;;6.13;;
70014;SDS011;57358;51.094;6.760;2023-04-15T15:16:23;5.82;;;4.90;;
70014;SDS011;57358;51.094;6.760;2023-04-15T15:18:50;5.10;;;4.80;;